createdAt,value
2022-12-19T00:01:40.625Z,95.55
2022-12-19T00:04:11.287Z,95.70
2022-12-19T00:06:43.556Z,94.64
2022-12-19T00:09:12.516Z,94.20
2022-12-19T00:11:40.658Z,96.64
2022-12-19T00:14:12.189Z,97.11
2022-12-19T00:16:39.755Z,95.96
2022-12-19T00:19:07.747Z,96.42
2022-12-19T00:21:35.968Z,95.52
2022-12-19T00:24:03.809Z,97.53
2022-12-19T00:26:39.668Z,95.58
2022-12-19T00:29:14.060Z,94.97
2022-12-19T00:31:43.301Z,95.87
2022-12-19T00:34:10.987Z,96.39
2022-12-19T00:36:38.463Z,95.27
2022-12-19T00:39:08.117Z,95.25
2022-12-19T00:41:41.380Z,95.28
2022-12-19T00:44:16.772Z,95.77
2022-12-19T00:46:53.012Z,96.27
2022-12-19T00:49:20.756Z,95.62
2022-12-19T00:51:48.244Z,95.19
2022-12-19T00:54:16.210Z,96.10
2022-12-19T00:56:43.767Z,95.32
2022-12-19T00:59:11.290Z,95.79
2022-12-19T01:01:41.060Z,95.31
2022-12-19T01:04:30.773Z,95.56
2022-12-19T01:07:02.658Z,95.47
2022-12-19T01:09:31.026Z,95.02
2022-12-19T01:12:16.431Z,94.95
2022-12-19T01:14:44.027Z,94.82
2022-12-19T01:17:11.574Z,95.56
2022-12-19T01:19:44.340Z,95.65
2022-12-19T01:22:12.463Z,95.85
2022-12-19T01:24:40.548Z,96.16
2022-12-19T01:27:08.354Z,95.61
2022-12-19T01:29:37.716Z,95.35
2022-12-19T01:32:19.496Z,95.94
2022-12-19T01:34:48.552Z,94.55
2022-12-19T01:37:15.993Z,94.23
2022-12-19T01:39:46.154Z,93.44
2022-12-19T01:42:16.005Z,93.84
2022-12-19T01:45:05.918Z,95.43
2022-12-19T01:47:36.640Z,95.28
2022-12-19T01:50:06.421Z,93.94
2022-12-19T01:52:34.022Z,94.85
2022-12-19T01:55:02.198Z,94.95
2022-12-19T01:57:30.526Z,93.90
2022-12-19T02:00:01.302Z,95.00
2022-12-19T02:02:33.547Z,94.53
2022-12-19T02:05:01.660Z,95.95
2022-12-19T02:07:31.907Z,95.37
2022-12-19T02:09:59.713Z,95.44
2022-12-19T02:12:29.249Z,93.75
2022-12-19T02:15:02.524Z,95.68
2022-12-19T02:17:39.838Z,94.73
2022-12-19T02:20:40.254Z,95.13
2022-12-19T02:23:29.139Z,95.89
2022-12-19T02:26:11.813Z,95.41
2022-12-19T02:28:56.081Z,94.32
2022-12-19T02:31:30.878Z,95.16
2022-12-19T02:34:05.830Z,95.27
2022-12-19T02:36:43.479Z,94.78
2022-12-19T02:39:18.423Z,94.66
2022-12-19T02:41:50.368Z,94.02
2022-12-19T02:44:26.875Z,94.34
2022-12-19T02:46:57.540Z,94.12
2022-12-19T02:49:28.842Z,95.78
2022-12-19T02:51:58.729Z,95.68
2022-12-19T02:54:26.426Z,96.49
2022-12-19T02:57:00.414Z,95.30
2022-12-19T02:59:41.484Z,94.05
2022-12-19T03:02:23.166Z,94.95
2022-12-19T03:04:56.417Z,95.15
2022-12-19T03:07:31.374Z,96.52
2022-12-19T03:10:09.294Z,96.52
2022-12-19T03:12:44.462Z,95.20
2022-12-19T03:15:13.576Z,95.45
2022-12-19T03:17:43.480Z,95.94
2022-12-19T03:20:20.134Z,96.01
2022-12-19T03:22:47.760Z,96.03
2022-12-19T03:25:15.660Z,95.34
2022-12-19T03:27:43.846Z,95.10
2022-12-19T03:30:13.927Z,95.03
2022-12-19T03:32:44.592Z,95.41
2022-12-19T03:35:15.512Z,96.81
2022-12-19T03:37:45.440Z,96.06
2022-12-19T03:40:17.120Z,96.92
2022-12-19T03:43:05.491Z,96.69
2022-12-19T03:45:44.356Z,96.73
2022-12-19T03:48:18.568Z,97.13
2022-12-19T03:50:54.349Z,98.13
2022-12-19T03:53:34.566Z,96.93
2022-12-19T03:56:11.055Z,97.30
2022-12-19T03:58:43.803Z,97.43
2022-12-19T04:01:11.423Z,96.17
2022-12-19T04:03:40.439Z,96.04
2022-12-19T04:06:08.038Z,96.08
2022-12-19T04:08:37.165Z,95.52
2022-12-19T04:11:08.902Z,95.42
2022-12-19T04:13:40.978Z,97.00
2022-12-19T04:16:16.265Z,96.46
2022-12-19T04:18:51.727Z,96.48
2022-12-19T04:21:24.117Z,96.65
2022-12-19T04:23:58.297Z,95.84
2022-12-19T04:26:27.503Z,96.88
2022-12-19T04:28:58.677Z,97.99
2022-12-19T04:31:26.429Z,98.16
2022-12-19T04:33:55.262Z,96.74
2022-12-19T04:36:22.995Z,96.45
2022-12-19T04:38:50.509Z,95.24
2022-12-19T04:41:18.001Z,95.90
2022-12-19T04:43:45.499Z,97.04
2022-12-19T04:46:12.980Z,97.02
2022-12-19T04:48:40.484Z,95.66
2022-12-19T04:51:09.346Z,96.01
2022-12-19T04:53:36.908Z,96.65
2022-12-19T04:56:05.394Z,97.42
2022-12-19T04:58:35.676Z,97.25
2022-12-19T05:01:04.210Z,96.23
2022-12-19T05:03:31.954Z,96.70
2022-12-19T05:06:05.608Z,97.12
2022-12-19T05:08:35.768Z,96.32
2022-12-19T05:11:04.723Z,97.18
2022-12-19T05:13:32.330Z,96.67
2022-12-19T05:16:00.915Z,96.81
2022-12-19T05:18:29.523Z,96.34
2022-12-19T05:20:57.551Z,96.95
2022-12-19T05:23:25.519Z,97.60
2022-12-19T05:25:54.485Z,96.81
2022-12-19T05:28:22.130Z,97.59
2022-12-19T05:30:52.513Z,97.52
2022-12-19T05:33:20.276Z,97.38
2022-12-19T05:35:49.278Z,98.29
2022-12-19T05:38:16.739Z,98.92
2022-12-19T05:43:34.174Z,98.43
2022-12-19T05:46:01.639Z,99.68
2022-12-19T05:48:29.279Z,98.61
2022-12-19T05:50:57.020Z,99.47
2022-12-19T05:53:26.146Z,97.87
2022-12-19T05:55:53.882Z,98.91
2022-12-19T05:58:21.356Z,100.00
2022-12-19T06:00:50.146Z,98.54
2022-12-19T06:03:17.664Z,100.00
2022-12-19T06:05:45.226Z,99.15
2022-12-19T06:08:12.687Z,99.80
2022-12-19T06:10:40.147Z,98.00
2022-12-19T06:13:09.141Z,98.14
2022-12-19T06:15:36.572Z,97.82
2022-12-19T06:18:05.402Z,100.00
2022-12-19T06:20:32.882Z,100.00
2022-12-19T06:23:00.465Z,99.76
2022-12-19T06:25:27.928Z,99.76
2022-12-19T06:27:55.366Z,99.69
2022-12-19T06:30:22.833Z,100.00
2022-12-19T06:32:50.466Z,99.46
2022-12-19T06:35:19.309Z,100.00
2022-12-19T06:37:49.655Z,99.78
2022-12-19T06:40:37.748Z,99.03
2022-12-19T06:43:04.235Z,99.64
2022-12-19T06:45:32.024Z,100.00
2022-12-19T06:47:59.528Z,100.00
2022-12-19T06:50:28.697Z,100.00
2022-12-19T06:52:56.401Z,100.00
2022-12-19T06:55:24.050Z,100.00
2022-12-19T06:57:51.549Z,100.00
2022-12-19T07:00:20.388Z,100.00
2022-12-19T07:02:51.368Z,100.00
2022-12-19T07:05:19.592Z,100.00
2022-12-19T07:07:48.390Z,100.00
2022-12-19T07:10:16.553Z,100.00
2022-12-19T07:12:44.009Z,100.00
2022-12-19T07:15:12.060Z,100.00
2022-12-19T07:17:39.842Z,100.00
2022-12-19T07:20:08.389Z,100.00
2022-12-19T07:22:37.581Z,100.00
2022-12-19T07:25:07.684Z,100.00
2022-12-19T07:27:36.264Z,100.00
2022-12-19T07:30:04.433Z,100.00
2022-12-19T07:32:31.934Z,100.00
2022-12-19T07:34:59.452Z,100.00
2022-12-19T07:37:26.900Z,100.00
2022-12-19T07:39:54.346Z,100.00
2022-12-19T07:42:23.148Z,100.00
2022-12-19T07:44:50.594Z,100.00
2022-12-19T07:47:18.236Z,100.00
2022-12-19T07:49:45.693Z,100.00
2022-12-19T07:52:13.174Z,100.00
2022-12-19T07:54:40.902Z,100.00
2022-12-19T07:57:08.359Z,100.00
2022-12-19T07:59:39.183Z,100.00
2022-12-19T08:02:07.279Z,100.00
2022-12-19T08:04:35.639Z,100.00
2022-12-19T08:07:03.249Z,100.00
2022-12-19T08:09:30.802Z,100.00
2022-12-19T08:11:59.473Z,100.00
2022-12-19T08:14:26.916Z,100.00
2022-12-19T08:17:19.779Z,100.00
2022-12-19T08:19:43.116Z,100.00
2022-12-19T08:22:10.608Z,100.00
2022-12-19T08:24:40.798Z,100.00
2022-12-19T08:27:08.278Z,100.00
2022-12-19T08:29:35.787Z,100.00
2022-12-19T08:32:04.776Z,100.00
2022-12-19T08:34:32.749Z,100.00
2022-12-19T08:37:00.265Z,100.00
2022-12-19T08:39:27.721Z,100.00
2022-12-19T08:41:55.164Z,100.00
2022-12-19T08:44:22.768Z,100.00
2022-12-19T08:46:50.692Z,100.00
2022-12-19T08:49:20.451Z,100.00
2022-12-19T08:51:48.069Z,100.00
2022-12-19T08:54:15.503Z,100.00
2022-12-19T08:56:46.289Z,100.00
2022-12-19T08:59:15.465Z,100.00
2022-12-19T09:01:49.721Z,100.00
2022-12-19T09:05:53.215Z,100.00
2022-12-19T09:07:06.044Z,100.00
2022-12-19T09:09:33.756Z,100.00
2022-12-19T09:12:01.222Z,100.00
2022-12-19T09:14:28.709Z,100.00
2022-12-19T09:16:56.395Z,100.00
2022-12-19T09:19:27.983Z,100.00
2022-12-19T09:21:55.436Z,100.00
2022-12-19T09:24:22.867Z,100.00
2022-12-19T09:26:50.405Z,100.00
2022-12-19T09:29:19.870Z,100.00
2022-12-19T09:31:55.497Z,100.00
2022-12-19T09:34:24.421Z,100.00
2022-12-19T09:36:59.738Z,100.00
2022-12-19T09:39:27.194Z,100.00
2022-12-19T09:42:11.785Z,100.00
2022-12-19T09:44:53.093Z,100.00
2022-12-19T09:47:25.713Z,100.00
2022-12-19T09:49:54.801Z,100.00
2022-12-19T09:52:32.801Z,100.00
2022-12-19T09:55:06.650Z,100.00
2022-12-19T09:57:41.311Z,100.00
2022-12-19T10:00:12.808Z,100.00
2022-12-19T10:02:47.352Z,100.00
2022-12-19T10:06:01.053Z,100.00
2022-12-19T10:08:18.656Z,100.00
2022-12-19T10:12:39.325Z,100.00
2022-12-19T10:14:09.204Z,100.00
2022-12-19T10:17:22.165Z,100.00
2022-12-19T10:19:48.777Z,100.00
2022-12-19T10:22:25.647Z,99.54
2022-12-19T10:25:12.588Z,100.00
2022-12-19T10:27:58.922Z,100.00
2022-12-19T10:30:31.768Z,100.00
2022-12-19T10:33:20.207Z,100.00
2022-12-19T10:35:54.190Z,100.00
2022-12-19T10:38:27.916Z,100.00
2022-12-19T10:41:12.479Z,100.00
2022-12-19T10:43:49.896Z,100.00
2022-12-19T10:46:22.488Z,99.93
2022-12-19T10:48:52.409Z,99.09
2022-12-19T10:51:24.900Z,100.00
2022-12-19T10:53:57.275Z,100.00
2022-12-19T10:56:36.741Z,100.00
2022-12-19T10:59:16.255Z,99.93
2022-12-19T11:01:44.695Z,100.00
2022-12-19T11:04:19.787Z,100.00
2022-12-19T11:06:51.145Z,100.00
2022-12-19T11:09:22.103Z,100.00
2022-12-19T11:16:18.647Z,99.77
2022-12-19T11:19:28.772Z,100.00
2022-12-19T11:23:21.506Z,99.99
2022-12-19T11:29:18.341Z,99.95
2022-12-19T11:29:18.523Z,100.00
2022-12-19T11:30:09.515Z,100.00
2022-12-19T11:30:39.207Z,100.00
2022-12-19T11:34:35.925Z,99.32
2022-12-19T11:37:16.681Z,99.33
2022-12-19T11:39:48.937Z,99.57
2022-12-19T11:42:23.984Z,99.13
2022-12-19T11:45:01.943Z,100.00
2022-12-19T11:47:36.424Z,98.96
2022-12-19T11:50:11.709Z,99.02
2022-12-19T11:55:37.437Z,99.60
2022-12-19T11:58:04.902Z,99.41
2022-12-19T12:00:34.761Z,99.67
2022-12-19T12:03:21.400Z,99.86
2022-12-19T12:05:49.571Z,99.31
2022-12-19T12:11:05.303Z,99.34
2022-12-19T12:19:40.617Z,99.76
2022-12-19T12:22:12.005Z,100.00
2022-12-19T12:31:09.854Z,99.94
2022-12-19T12:31:11.743Z,99.82
2022-12-19T12:31:38.591Z,99.42
2022-12-19T12:31:45.376Z,99.18
2022-12-19T12:31:51.724Z,99.40
2022-12-19T12:35:31.722Z,99.26
2022-12-19T12:38:35.417Z,99.54
2022-12-19T12:41:17.999Z,98.77
2022-12-19T12:43:58.594Z,98.64
2022-12-19T12:46:33.327Z,99.25
2022-12-19T12:49:04.971Z,99.45
2022-12-19T12:51:35.109Z,99.43
2022-12-19T12:54:07.372Z,99.48
2022-12-19T12:56:36.367Z,99.68
2022-12-19T12:59:08.296Z,99.59
2022-12-19T13:01:38.049Z,100.00
2022-12-19T13:04:19.007Z,100.00
2022-12-19T13:07:05.331Z,99.54
2022-12-19T13:09:39.471Z,99.49
2022-12-19T13:12:36.415Z,99.01
2022-12-19T13:15:21.241Z,98.79
2022-12-19T13:18:09.110Z,98.42
2022-12-19T13:20:43.889Z,98.84
2022-12-19T13:23:24.621Z,98.78
2022-12-19T13:25:54.580Z,98.42
2022-12-19T13:28:49.042Z,98.22
2022-12-19T13:31:22.516Z,99.45
2022-12-19T13:34:18.352Z,98.52
2022-12-19T13:40:01.588Z,98.63
2022-12-19T13:40:11.398Z,99.66
2022-12-19T13:43:10.383Z,100.00
2022-12-19T13:45:42.250Z,99.24
2022-12-19T13:48:16.201Z,99.88
2022-12-19T13:50:47.600Z,99.35
2022-12-19T13:53:18.507Z,100.00
2022-12-19T13:55:47.654Z,99.82
2022-12-19T13:58:29.045Z,100.00
2022-12-19T14:00:59.619Z,100.00
2022-12-19T14:03:35.720Z,100.00
2022-12-19T14:06:16.475Z,100.00
2022-12-19T14:09:20.208Z,100.00
2022-12-19T14:12:22.251Z,100.00
2022-12-19T14:15:02.135Z,100.00
2022-12-19T14:17:38.415Z,100.00
2022-12-19T14:22:01.819Z,100.00
2022-12-19T14:23:05.715Z,100.00
2022-12-19T14:28:15.068Z,100.00
2022-12-19T14:28:40.808Z,100.00
2022-12-19T14:31:16.083Z,100.00
2022-12-19T14:34:04.762Z,100.00
2022-12-19T14:36:37.379Z,100.00
2022-12-19T14:39:24.577Z,100.00
2022-12-19T14:42:13.240Z,100.00
2022-12-19T14:52:51.829Z,100.00
2022-12-19T14:54:09.341Z,100.00
2022-12-19T14:54:10.841Z,100.00
2022-12-19T14:54:52.483Z,100.00
2022-12-19T14:59:01.555Z,100.00
2022-12-19T15:01:33.400Z,100.00
2022-12-19T15:04:52.889Z,100.00
2022-12-19T15:07:06.946Z,100.00
2022-12-19T15:11:03.011Z,100.00
2022-12-19T15:14:48.422Z,100.00
2022-12-19T15:15:41.147Z,100.00
2022-12-19T15:18:24.564Z,100.00
2022-12-19T15:20:53.645Z,100.00
2022-12-19T15:23:22.596Z,100.00
2022-12-19T15:26:07.349Z,100.00
2022-12-19T15:28:41.213Z,100.00
2022-12-19T15:31:18.701Z,100.00
2022-12-19T15:34:23.270Z,100.00
2022-12-19T15:36:34.939Z,100.00
2022-12-19T15:39:03.587Z,100.00
2022-12-19T15:41:31.501Z,100.00
2022-12-19T15:44:04.180Z,100.00
2022-12-19T15:46:32.743Z,100.00
2022-12-19T15:49:01.973Z,100.00
2022-12-19T15:51:29.289Z,100.00
2022-12-19T15:54:04.198Z,100.00
2022-12-19T15:56:46.565Z,100.00
2022-12-19T15:59:24.534Z,100.00
2022-12-19T16:01:52.896Z,100.00
2022-12-19T16:04:23.148Z,100.00
2022-12-19T16:06:50.769Z,100.00
2022-12-19T16:09:22.401Z,100.00
2022-12-19T16:11:51.245Z,100.00
2022-12-19T16:14:19.278Z,100.00
2022-12-19T16:16:51.119Z,100.00
2022-12-19T16:19:26.449Z,100.00
2022-12-19T16:21:54.779Z,100.00
2022-12-19T16:24:23.043Z,100.00
2022-12-19T16:26:54.254Z,100.00
2022-12-19T16:29:24.317Z,100.00
2022-12-19T16:31:53.036Z,100.00
2022-12-19T16:34:23.883Z,100.00
2022-12-19T16:36:53.546Z,100.00
2022-12-19T16:39:21.014Z,100.00
2022-12-19T16:41:48.542Z,100.00
2022-12-19T16:44:19.427Z,100.00
2022-12-19T16:46:51.150Z,100.00
2022-12-19T16:49:20.508Z,100.00
2022-12-19T16:51:48.671Z,100.00
2022-12-19T16:54:18.402Z,100.00
2022-12-19T16:56:49.158Z,100.00
2022-12-19T16:59:19.766Z,100.00
2022-12-19T17:01:48.463Z,100.00
2022-12-19T17:04:18.258Z,100.00
2022-12-19T17:06:45.836Z,100.00
2022-12-19T17:09:15.631Z,100.00
2022-12-19T17:11:47.881Z,100.00
2022-12-19T17:14:18.726Z,100.00
2022-12-19T17:16:46.637Z,100.00
2022-12-19T17:19:22.664Z,100.00
2022-12-19T17:21:51.275Z,100.00
2022-12-19T17:24:19.655Z,100.00
2022-12-19T17:26:48.875Z,100.00
2022-12-19T17:29:16.393Z,100.00
2022-12-19T17:31:44.116Z,100.00
2022-12-19T17:34:18.147Z,100.00
2022-12-19T17:36:46.169Z,100.00
2022-12-19T17:39:20.016Z,100.00
2022-12-19T17:41:52.093Z,100.00
2022-12-19T17:44:20.227Z,100.00
2022-12-19T17:46:48.516Z,100.00
2022-12-19T17:49:18.076Z,100.00
2022-12-19T17:51:49.660Z,100.00
2022-12-19T17:54:17.463Z,100.00
2022-12-19T17:56:44.897Z,100.00
2022-12-19T17:59:13.690Z,100.00
2022-12-19T18:01:42.614Z,100.00
2022-12-19T18:04:14.267Z,100.00
2022-12-19T18:06:42.488Z,100.00
2022-12-19T18:09:18.530Z,100.00
2022-12-19T18:11:46.157Z,100.00
2022-12-19T18:14:16.141Z,100.00
2022-12-19T18:16:44.836Z,100.00
2022-12-19T18:19:18.340Z,100.00
2022-12-19T18:21:46.070Z,100.00
2022-12-19T18:24:16.199Z,100.00
2022-12-19T18:26:44.114Z,100.00
2022-12-19T18:29:11.857Z,100.00
2022-12-19T18:31:50.380Z,100.00
2022-12-19T18:34:21.430Z,100.00
2022-12-19T18:36:48.926Z,100.00
2022-12-19T18:39:21.951Z,100.00
2022-12-19T18:41:50.001Z,100.00
2022-12-19T18:44:18.065Z,100.00
2022-12-19T18:46:49.600Z,100.00
2022-12-19T18:49:18.412Z,100.00
2022-12-19T18:51:49.113Z,100.00
2022-12-19T18:54:18.692Z,100.00
2022-12-19T18:56:46.882Z,100.00
2022-12-19T18:59:14.658Z,100.00
2022-12-19T19:01:43.897Z,100.00
2022-12-19T19:04:16.840Z,100.00
2022-12-19T19:06:50.843Z,100.00
2022-12-19T19:09:20.042Z,100.00
2022-12-19T19:11:47.576Z,100.00
2022-12-19T19:14:15.078Z,100.00
2022-12-19T19:16:42.843Z,100.00
2022-12-19T19:19:15.277Z,100.00
2022-12-19T19:21:43.005Z,100.00
2022-12-19T19:24:14.451Z,100.00
2022-12-19T19:26:41.976Z,100.00
2022-12-19T19:29:10.346Z,100.00
2022-12-19T19:31:40.265Z,100.00
2022-12-19T19:34:13.136Z,100.00
2022-12-19T19:36:46.302Z,100.00
2022-12-19T19:39:14.145Z,100.00
2022-12-19T19:41:41.723Z,100.00
2022-12-19T19:44:09.222Z,100.00
2022-12-19T19:46:37.303Z,100.00
2022-12-19T19:49:04.841Z,100.00
2022-12-19T19:51:32.359Z,100.00
2022-12-19T19:54:01.124Z,100.00
2022-12-19T19:56:28.673Z,100.00
2022-12-19T19:58:59.390Z,100.00
2022-12-19T20:01:27.270Z,100.00
2022-12-19T20:03:54.945Z,100.00
2022-12-19T20:06:22.497Z,100.00
2022-12-19T20:08:50.303Z,100.00
2022-12-19T20:11:20.354Z,100.00
2022-12-19T20:13:48.007Z,100.00
2022-12-19T20:16:17.899Z,100.00
2022-12-19T20:18:49.311Z,100.00
2022-12-19T20:21:18.182Z,100.00
2022-12-19T20:23:45.617Z,100.00
2022-12-19T20:26:16.133Z,100.00
2022-12-19T20:28:48.808Z,100.00
2022-12-19T20:31:17.699Z,100.00
2022-12-19T20:33:46.085Z,100.00
2022-12-19T20:36:14.183Z,100.00
2022-12-19T20:38:41.939Z,100.00
2022-12-19T20:41:09.668Z,100.00
2022-12-19T20:43:38.358Z,100.00
2022-12-19T20:46:09.462Z,100.00
2022-12-19T20:48:37.540Z,100.00
2022-12-19T20:51:06.324Z,100.00
2022-12-19T20:53:35.718Z,100.00
2022-12-19T20:56:05.556Z,100.00
2022-12-19T20:58:35.149Z,100.00
2022-12-19T21:01:06.158Z,100.00
2022-12-19T21:03:35.666Z,100.00
2022-12-19T21:06:03.780Z,100.00
2022-12-19T21:08:32.168Z,100.00
2022-12-19T21:11:01.169Z,100.00
2022-12-19T21:13:29.519Z,100.00
2022-12-19T21:15:58.657Z,100.00
2022-12-19T21:18:27.186Z,100.00
2022-12-19T21:20:56.919Z,100.00
2022-12-19T21:23:26.177Z,100.00
2022-12-19T21:25:53.866Z,100.00
2022-12-19T21:28:21.319Z,100.00
2022-12-19T21:30:56.247Z,100.00
2022-12-19T21:33:24.168Z,100.00
2022-12-19T21:35:51.628Z,100.00
2022-12-19T21:38:20.421Z,100.00
2022-12-19T21:40:47.945Z,100.00
2022-12-19T21:43:15.476Z,100.00
2022-12-19T21:45:44.196Z,100.00
2022-12-19T21:48:11.665Z,99.80
2022-12-19T21:50:39.138Z,99.93
2022-12-19T21:53:06.639Z,100.00
2022-12-19T21:55:35.716Z,99.61
2022-12-19T21:58:03.223Z,99.57
2022-12-19T22:00:30.727Z,99.78
2022-12-19T22:03:15.128Z,99.74
2022-12-19T22:05:43.170Z,99.02
2022-12-19T22:08:11.698Z,99.34
2022-12-19T22:10:40.660Z,99.81
2022-12-19T22:13:08.146Z,98.65
2022-12-19T22:15:36.583Z,98.78
2022-12-19T22:18:04.312Z,98.47
2022-12-19T22:20:31.784Z,98.79
2022-12-19T22:22:59.221Z,99.21
2022-12-19T22:25:26.702Z,98.43
2022-12-19T22:27:57.290Z,98.57
2022-12-19T22:30:24.748Z,97.19
2022-12-19T22:32:52.237Z,97.88
2022-12-19T22:35:19.743Z,97.46
2022-12-19T22:37:47.241Z,98.72
2022-12-19T22:40:14.947Z,98.97
2022-12-19T22:42:42.431Z,98.24
2022-12-19T22:45:12.046Z,99.68
2022-12-19T22:47:41.822Z,98.97
2022-12-19T22:50:10.340Z,97.69
2022-12-19T22:52:38.087Z,98.62
2022-12-19T22:55:06.614Z,100.00
2022-12-19T22:57:34.918Z,100.00
2022-12-19T23:00:02.485Z,99.61
2022-12-19T23:02:31.390Z,99.79
2022-12-19T23:04:58.935Z,98.76
2022-12-19T23:07:26.409Z,99.78
2022-12-19T23:09:53.849Z,99.28
2022-12-19T23:12:21.516Z,99.10
2022-12-19T23:14:49.193Z,98.08
2022-12-19T23:17:16.755Z,97.70
2022-12-19T23:19:45.607Z,99.15
2022-12-19T23:22:13.033Z,99.77
2022-12-19T23:24:41.373Z,99.01
2022-12-19T23:27:08.980Z,99.16
2022-12-19T23:29:36.438Z,99.27
2022-12-19T23:32:03.923Z,98.74
2022-12-19T23:34:31.374Z,99.29
2022-12-19T23:37:10.695Z,99.11
2022-12-19T23:39:38.895Z,98.84
2022-12-19T23:42:06.452Z,100.00
2022-12-19T23:44:34.036Z,100.00
2022-12-19T23:47:03.755Z,100.00
2022-12-19T23:49:32.292Z,100.00
2022-12-19T23:52:01.208Z,100.00
2022-12-19T23:54:28.720Z,100.00
2022-12-19T23:56:56.224Z,100.00
2022-12-19T23:59:23.711Z,100.00
